Time;durP1;ratioP1;P1;durP2;ratioP2;P2;SDS_P1;SDS_P2;PMS_P1;PMS_P2;Temp;Humidity;BMP_temperature;BMP_pressure;BME280_temperature;BME280_humidity;BME280_pressure;Samples;Min_cycle;Max_cycle;Signal;HPM_P1;HPM_P2
2023/09/04 00:02:04;;;;;;;8.13;7.50;;;;;;;16.82;83.19;102577.47;5116172;27;20089;-61
2023/09/04 00:04:29;;;;;;;7.55;6.85;;;;;;;16.75;83.35;102587.72;5114773;28;20015;-61
2023/09/04 00:06:54;;;;;;;7.18;6.55;;;;;;;16.70;83.14;102579.91;5115335;28;20023;-61
2023/09/04 00:09:22;;;;;;;7.32;6.63;;;;;;;16.55;83.47;102580.84;5115224;28;20027;-61
2023/09/04 00:11:48;;;;;;;7.97;7.13;;;;;;;16.50;83.92;102583.84;5097069;28;20115;-61
2023/09/04 00:14:15;;;;;;;8.27;7.43;;;;;;;16.49;83.92;102578.53;5096720;28;20534;-61
2023/09/04 00:16:42;;;;;;;7.45;6.85;;;;;;;16.45;84.18;102575.19;5115120;28;20024;-61
2023/09/04 00:19:09;;;;;;;9.40;7.60;;;;;;;16.34;84.28;102575.81;5097446;28;20028;-61
2023/09/04 00:21:35;;;;;;;8.40;7.53;;;;;;;16.31;84.08;102573.31;5096206;28;20023;-61
2023/09/04 00:24:00;;;;;;;8.27;6.97;;;;;;;16.40;83.67;102577.28;5096923;28;20023;-61
2023/09/04 00:26:28;;;;;;;8.48;7.68;;;;;;;16.26;84.40;102563.81;5114810;28;20042;-61
2023/09/04 00:28:53;;;;;;;7.93;7.22;;;;;;;16.06;84.92;102555.13;5114874;28;20028;-61
2023/09/04 00:31:18;;;;;;;7.75;7.05;;;;;;;16.27;84.76;102573.63;5114787;28;20051;-61
2023/09/04 00:33:44;;;;;;;8.52;7.60;;;;;;;16.29;84.25;102574.38;5096630;28;20020;-61
2023/09/04 00:36:09;;;;;;;9.82;7.47;;;;;;;16.30;84.16;102568.06;5096288;28;20418;-61
2023/09/04 00:38:37;;;;;;;8.00;7.30;;;;;;;16.11;85.03;102569.13;5096229;28;20028;-61
2023/09/04 00:41:05;;;;;;;8.57;7.70;;;;;;;16.27;84.51;102561.03;5096398;28;20019;-61
2023/09/04 00:43:35;;;;;;;8.30;7.50;;;;;;;16.13;84.78;102571.75;5099117;28;20382;-61
2023/09/04 00:46:03;;;;;;;7.60;6.95;;;;;;;16.10;84.62;102567.41;5105137;28;20031;-61
2023/09/04 00:48:29;;;;;;;8.07;7.28;;;;;;;16.14;83.65;102573.44;5114711;28;20471;-61
2023/09/04 00:50:55;;;;;;;7.93;7.03;;;;;;;16.06;84.12;102573.03;5113935;28;20031;-61
2023/09/04 00:53:20;;;;;;;9.13;7.50;;;;;;;16.02;84.57;102580.41;5088156;28;20024;-61
2023/09/04 00:55:49;;;;;;;8.15;7.45;;;;;;;15.85;85.53;102584.09;5075659;28;20035;-61
2023/09/04 00:58:15;;;;;;;8.20;7.40;;;;;;;15.83;85.09;102567.22;5093526;28;20020;-61
2023/09/04 01:00:40;;;;;;;7.70;7.03;;;;;;;15.72;85.25;102572.31;5093843;28;20033;-61
2023/09/04 01:03:07;;;;;;;9.27;7.78;;;;;;;15.64;85.63;102577.22;5075899;28;20368;-61
2023/09/04 01:05:33;;;;;;;8.18;7.38;;;;;;;15.55;86.15;102575.06;5093094;28;20020;-61
2023/09/04 01:08:00;;;;;;;7.97;7.28;;;;;;;15.70;85.64;102568.00;5093792;28;20100;-61
2023/09/04 01:10:34;;;;;;;8.35;7.55;;;;;;;15.70;85.62;102571.53;5113496;27;20453;-61
2023/09/04 01:13:11;;;;;;;8.27;7.47;;;;;;;15.50;86.06;102567.28;5114061;28;20391;-61
2023/09/04 01:15:37;;;;;;;8.77;7.78;;;;;;;15.62;85.61;102571.94;5113849;28;20020;-61
2023/09/04 01:18:03;;;;;;;8.43;7.68;;;;;;;15.61;85.47;102561.28;5095727;28;20474;-61
2023/09/04 01:20:29;;;;;;;8.98;8.13;;;;;;;15.52;85.71;102561.81;5113528;28;20031;-61
2023/09/04 01:22:56;;;;;;;8.40;7.70;;;;;;;15.44;85.29;102544.38;5114131;28;20019;-61
2023/09/04 01:25:26;;;;;;;7.88;7.10;;;;;;;15.47;85.60;102562.09;5095461;28;20019;-61
2023/09/04 01:28:10;;;;;;;8.82;7.30;;;;;;;15.44;85.95;102559.56;5114265;27;20019;-61
2023/09/04 01:30:49;;;;;;;8.32;7.53;;;;;;;15.42;86.31;102561.47;5113475;28;20022;-61
2023/09/04 01:33:19;;;;;;;9.30;8.50;;;;;;;15.39;86.38;102562.50;5113791;28;20023;-61
2023/09/04 01:35:48;;;;;;;10.02;8.40;;;;;;;15.16;87.21;102561.09;5113482;28;20015;-61
2023/09/04 01:38:14;;;;;;;8.73;7.83;;;;;;;15.26;86.94;102563.28;5095456;28;20036;-61
2023/09/04 01:40:40;;;;;;;9.32;8.00;;;;;;;15.28;86.91;102564.06;5113482;28;20069;-60
2023/09/04 01:43:06;;;;;;;8.77;7.43;;;;;;;15.36;86.04;102559.16;5095539;28;20027;-60
2023/09/04 01:45:31;;;;;;;9.07;8.38;;;;;;;15.24;86.81;102562.50;5095004;28;20020;-60
2023/09/04 01:47:57;;;;;;;9.13;8.32;;;;;;;15.26;86.79;102556.09;5095245;28;20058;-61
2023/09/04 01:50:22;;;;;;;10.77;8.65;;;;;;;15.29;86.96;102565.78;5094428;28;20034;-60
2023/09/04 01:52:47;;;;;;;9.88;9.07;;;;;;;15.19;87.19;102552.91;5113287;28;20031;-61
2023/09/04 01:55:13;;;;;;;10.10;9.10;;;;;;;15.28;87.15;102564.94;5113072;28;20106;-60
2023/09/04 01:57:38;;;;;;;10.18;9.18;;;;;;;15.16;87.11;102555.75;5112306;28;20035;-61
2023/09/04 02:00:04;;;;;;;10.35;9.45;;;;;;;14.99;88.04;102553.97;5113135;27;20051;-61
2023/09/04 02:02:30;;;;;;;9.80;8.90;;;;;;;15.09;87.33;102550.78;5095159;28;20028;-61
2023/09/04 02:04:55;;;;;;;10.45;9.38;;;;;;;15.08;87.38;102554.44;5112657;28;20020;-61
2023/09/04 02:07:21;;;;;;;11.00;9.98;;;;;;;15.04;87.34;102550.19;5094684;28;20062;-61
2023/09/04 02:09:46;;;;;;;10.00;9.15;;;;;;;15.08;87.29;102549.94;5112715;28;20478;-61
2023/09/04 02:12:11;;;;;;;9.65;8.60;;;;;;;15.11;87.21;102547.09;5112850;28;20024;-61
2023/09/04 02:14:39;;;;;;;10.65;9.65;;;;;;;15.05;87.21;102546.56;5112510;28;20026;-61
2023/09/04 02:17:05;;;;;;;9.85;8.63;;;;;;;14.94;87.60;102528.38;5113432;27;20054;-61
2023/09/04 02:19:30;;;;;;;10.15;9.25;;;;;;;15.10;87.20;102544.50;5094266;28;20111;-61
2023/09/04 02:21:55;;;;;;;10.75;9.50;;;;;;;14.95;87.17;102536.34;5112713;28;20023;-61
2023/09/04 02:24:21;;;;;;;10.23;9.27;;;;;;;14.87;87.60;102529.69;5094513;28;20019;-61
2023/09/04 02:26:46;;;;;;;10.10;8.82;;;;;;;14.72;87.18;102528.69;5112184;28;20024;-61
2023/09/04 02:29:14;;;;;;;10.43;9.38;;;;;;;14.92;86.55;102523.13;5112776;28;20093;-61
2023/09/04 02:31:39;;;;;;;11.20;10.02;;;;;;;14.89;87.51;102520.59;5094063;28;20051;-61
2023/09/04 02:34:04;;;;;;;10.48;9.57;;;;;;;14.83;87.67;102525.44;5115208;27;20020;-61
2023/09/04 02:36:32;;;;;;;10.52;9.52;;;;;;;14.74;88.23;102527.66;5132798;27;20011;-61
2023/09/04 02:38:57;;;;;;;9.63;8.88;;;;;;;14.73;87.92;102523.22;5114633;27;20526;-61
2023/09/04 02:41:23;;;;;;;11.13;10.10;;;;;;;14.68;88.63;102519.09;5132881;27;20031;-61
2023/09/04 02:43:48;;;;;;;10.75;9.75;;;;;;;14.70;88.47;102520.72;5132908;27;20448;-61
2023/09/04 02:46:13;;;;;;;11.10;9.93;;;;;;;14.51;89.19;102510.13;5132709;27;20027;-61
2023/09/04 02:48:39;;;;;;;12.93;11.02;;;;;;;14.48;90.14;102518.31;5114390;27;20027;-61
2023/09/04 02:51:04;;;;;;;10.93;9.85;;;;;;;14.52;89.65;102513.69;5131552;27;20035;-61
2023/09/04 02:53:32;;;;;;;11.23;10.18;;;;;;;14.55;89.84;102510.84;5114378;27;20031;-61
2023/09/04 02:55:58;;;;;;;10.95;10.05;;;;;;;14.49;89.82;102513.81;5114338;27;20041;-61
2023/09/04 02:58:24;;;;;;;12.13;10.38;;;;;;;14.44;90.11;102513.19;5132657;27;20094;-61
2023/09/04 03:00:49;;;;;;;12.93;11.25;;;;;;;14.34;90.84;102511.94;5132619;27;20023;-61
2023/09/04 03:03:20;;;;;;;12.65;11.55;;;;;;;14.41;91.28;102513.34;5132876;27;20030;-61
2023/09/04 03:05:46;;;;;;;11.88;10.77;;;;;;;14.34;90.80;102510.13;5132139;27;20783;-61
2023/09/04 03:08:12;;;;;;;12.30;11.18;;;;;;;14.30;91.72;102505.88;5130884;28;20095;-61
2023/09/04 03:10:37;;;;;;;11.88;10.75;;;;;;;14.42;91.38;102499.03;5098433;28;20041;-61
2023/09/04 03:13:03;;;;;;;11.50;10.45;;;;;;;14.49;91.11;102495.06;5100770;28;20038;-61
2023/09/04 03:15:28;;;;;;;12.65;11.40;;;;;;;14.36;91.56;102494.00;5118851;28;20026;-61
2023/09/04 03:17:56;;;;;;;12.65;11.45;;;;;;;14.32;92.35;102491.50;5118927;28;20059;-61
2023/09/04 03:20:22;;;;;;;12.13;11.02;;;;;;;14.30;91.55;102479.97;5100194;28;20023;-61
2023/09/04 03:22:47;;;;;;;12.23;11.02;;;;;;;14.29;92.54;102491.66;5118745;28;20035;-61
2023/09/04 03:25:13;;;;;;;14.18;12.80;;;;;;;14.31;93.47;102476.34;5119115;27;20027;-61
2023/09/04 03:27:38;;;;;;;13.77;12.48;;;;;;;14.26;93.90;102483.75;5100352;28;20031;-61
2023/09/04 03:30:04;;;;;;;14.32;12.75;;;;;;;14.31;94.13;102481.72;5118773;28;20027;-61
2023/09/04 03:32:30;;;;;;;14.23;12.75;;;;;;;14.26;94.59;102490.91;5118657;28;20061;-63
2023/09/04 03:34:55;;;;;;;14.40;12.63;;;;;;;14.32;94.88;102494.16;5118632;28;20511;-61
2023/09/04 03:37:21;;;;;;;14.57;12.60;;;;;;;14.28;94.55;102487.22;5118587;28;20500;-61
2023/09/04 03:39:46;;;;;;;14.10;12.80;;;;;;;14.31;94.13;102500.44;5118467;28;20387;-61
2023/09/04 03:42:12;;;;;;;14.93;13.52;;;;;;;14.24;93.88;102483.00;5119304;27;20023;-61
2023/09/04 03:44:37;;;;;;;13.38;12.07;;;;;;;14.19;94.18;102492.19;5118472;28;20424;-61
2023/09/04 03:47:03;;;;;;;13.90;12.57;;;;;;;14.21;94.31;102480.47;5118685;28;20069;-61
2023/09/04 03:49:28;;;;;;;15.75;13.45;;;;;;;14.23;94.95;102483.91;5118211;28;20023;-61
2023/09/04 03:51:54;;;;;;;15.32;13.65;;;;;;;14.35;94.80;102482.41;5100075;28;20434;-61
2023/09/04 03:54:19;;;;;;;15.07;13.48;;;;;;;14.10;95.10;102474.81;5118512;28;20031;-61
2023/09/04 03:56:45;;;;;;;15.30;13.80;;;;;;;14.32;95.02;102486.13;5118208;28;20055;-61
2023/09/04 03:59:12;;;;;;;15.85;14.35;;;;;;;14.12;95.34;102474.72;5119006;27;20029;-61
2023/09/04 04:01:38;;;;;;;14.73;13.32;;;;;;;14.16;95.69;102471.81;5118218;28;20481;-61
2023/09/04 04:04:06;;;;;;;15.13;13.73;;;;;;;14.21;94.78;102477.78;5100159;28;20023;-61
2023/09/04 04:06:33;;;;;;;15.70;14.20;;;;;;;14.28;95.58;102481.00;5117676;28;20055;-61
2023/09/04 04:08:59;;;;;;;15.10;13.60;;;;;;;14.25;95.35;102476.69;5118183;28;20020;-61
2023/09/04 04:11:27;;;;;;;15.55;14.07;;;;;;;14.09;95.56;102484.66;5118256;28;20016;-61
2023/09/04 04:13:52;;;;;;;15.13;13.63;;;;;;;14.12;95.19;102469.34;5118286;28;20051;-61
2023/09/04 04:16:17;;;;;;;17.50;13.93;;;;;;;14.20;94.67;102473.38;5100617;28;20505;-61
2023/09/04 04:18:43;;;;;;;15.68;14.18;;;;;;;14.21;94.48;102476.94;5118407;28;20088;-61
2023/09/04 04:21:09;;;;;;;15.82;14.32;;;;;;;14.18;94.96;102477.97;5115470;28;20023;-61
2023/09/04 04:23:34;;;;;;;17.33;14.45;;;;;;;14.15;94.77;102480.78;5114927;28;20054;-61
2023/09/04 04:25:59;;;;;;;15.48;13.93;;;;;;;14.23;93.55;102477.69;5115188;28;20024;-61
2023/09/04 04:28:27;;;;;;;15.00;13.60;;;;;;;14.08;94.38;102479.38;5110507;27;20024;-61
2023/09/04 04:30:53;;;;;;;15.02;13.73;;;;;;;14.15;93.32;102479.91;5107605;28;20406;-61
2023/09/04 04:33:18;;;;;;;14.63;13.07;;;;;;;14.07;93.89;102474.97;5115481;27;20035;-61
2023/09/04 04:35:52;;;;;;;15.40;14.00;;;;;;;14.05;94.80;102476.84;5088853;28;20027;-61
2023/09/04 04:38:17;;;;;;;15.77;14.27;;;;;;;14.03;94.27;102466.25;5094312;28;20024;-61
2023/09/04 04:40:43;;;;;;;15.57;14.05;;;;;;;14.04;94.54;102469.78;5101564;28;20027;-61
2023/09/04 04:43:08;;;;;;;15.02;13.63;;;;;;;14.06;94.42;102474.09;5114855;28;20476;-61
2023/09/04 04:45:33;;;;;;;14.75;13.45;;;;;;;14.09;93.95;102473.09;5114490;28;20020;-62
2023/09/04 04:47:59;;;;;;;15.27;13.82;;;;;;;14.04;94.28;102472.44;5114703;28;20360;-61
2023/09/04 04:50:24;;;;;;;15.60;14.10;;;;;;;13.97;94.42;102468.34;5114363;27;20023;-61
2023/09/04 04:52:50;;;;;;;14.88;13.45;;;;;;;13.97;94.64;102460.31;5114442;28;20072;-61
2023/09/04 04:55:15;;;;;;;15.40;13.98;;;;;;;13.98;94.17;102462.06;5114293;28;20020;-60
2023/09/04 04:57:41;;;;;;;15.82;14.35;;;;;;;13.84;95.12;102468.97;5114329;28;20440;-61
2023/09/04 05:00:07;;;;;;;16.42;14.90;;;;;;;13.89;95.57;102460.72;5114094;28;20025;-60
2023/09/04 05:02:36;;;;;;;16.88;15.25;;;;;;;13.79;95.76;102462.13;5095919;28;20027;-61
2023/09/04 05:05:03;;;;;;;16.63;14.90;;;;;;;13.94;94.90;102468.50;5113680;28;20500;-61
2023/09/04 05:07:29;;;;;;;15.52;14.23;;;;;;;14.02;93.64;102461.81;5114485;27;20072;-61
2023/09/04 05:09:55;;;;;;;18.20;16.02;;;;;;;13.85;94.99;102472.50;5113856;28;20466;-61
2023/09/04 05:12:21;;;;;;;17.70;15.35;;;;;;;13.86;95.45;102474.25;5114116;28;20015;-61
2023/09/04 05:14:47;;;;;;;16.67;14.98;;;;;;;13.85;95.29;102473.41;5113712;28;20049;-61
2023/09/04 05:17:12;;;;;;;15.30;14.00;;;;;;;13.91;95.39;102471.34;5095883;28;20088;-61
2023/09/04 05:19:38;;;;;;;17.88;14.15;;;;;;;13.97;95.04;102471.03;5094659;28;20035;-61
2023/09/04 05:22:03;;;;;;;16.00;14.48;;;;;;;14.00;94.61;102473.53;5113833;28;20026;-61
2023/09/04 05:24:29;;;;;;;16.10;14.40;;;;;;;14.03;94.64;102474.28;5114260;28;20028;-61
2023/09/04 05:26:54;;;;;;;15.68;14.27;;;;;;;14.07;94.80;102472.28;5113898;28;20107;-61
2023/09/04 05:29:20;;;;;;;16.65;14.95;;;;;;;14.03;95.58;102481.41;5113864;28;20024;-61
2023/09/04 05:31:49;;;;;;;16.17;14.70;;;;;;;14.05;95.31;102485.72;5113477;28;20044;-61
2023/09/04 05:34:15;;;;;;;15.90;14.27;;;;;;;14.09;95.66;102475.75;5113214;28;20099;-61
2023/09/04 05:36:40;;;;;;;16.08;14.35;;;;;;;14.09;96.01;102479.31;5112583;28;20050;-61
2023/09/04 05:39:06;;;;;;;17.63;15.73;;;;;;;14.17;95.50;102480.69;5113620;28;20035;-61
2023/09/04 05:41:31;;;;;;;15.82;14.43;;;;;;;14.11;95.71;102481.00;5095817;28;20056;-61
2023/09/04 05:43:57;;;;;;;16.42;14.65;;;;;;;14.17;95.92;102489.59;5113728;28;20493;-61
2023/09/04 05:46:22;;;;;;;17.20;14.65;;;;;;;14.11;95.45;102484.56;5113280;28;20040;-61
2023/09/04 05:48:47;;;;;;;17.77;15.95;;;;;;;14.17;96.38;102484.22;5095982;28;20480;-61
2023/09/04 05:51:13;;;;;;;15.98;14.57;;;;;;;14.19;95.79;102468.97;5094278;28;20027;-61
2023/09/04 05:53:38;;;;;;;20.40;15.00;;;;;;;14.22;96.42;102479.50;5094996;28;20020;-61
2023/09/04 05:56:11;;;;;;;16.45;14.55;;;;;;;14.15;96.17;102480.78;5094564;28;20116;-62
2023/09/04 05:58:50;;;;;;;17.13;15.35;;;;;;;14.27;97.18;102480.16;5113680;27;20382;-61
2023/09/04 06:01:17;;;;;;;17.88;16.08;;;;;;;14.26;97.23;102478.41;5128956;27;20023;-61
2023/09/04 06:03:44;;;;;;;17.33;15.63;;;;;;;14.25;98.04;102483.84;5128556;27;20027;-61
2023/09/04 06:06:10;;;;;;;17.98;16.23;;;;;;;14.36;97.95;102484.16;5110297;28;20023;-61
2023/09/04 06:08:36;;;;;;;17.20;15.32;;;;;;;14.34;98.33;102477.16;5112830;28;20419;-61
2023/09/04 06:11:02;;;;;;;19.33;17.33;;;;;;;14.50;99.05;102480.72;5112680;28;20491;-60
2023/09/04 06:13:28;;;;;;;18.52;16.88;;;;;;;14.53;98.99;102477.94;5094584;28;20028;-61
2023/09/04 06:15:54;;;;;;;19.92;17.40;;;;;;;14.60;99.76;102482.00;5113148;27;20049;-60
2023/09/04 06:18:19;;;;;;;19.00;16.35;;;;;;;14.66;99.58;102473.63;5094165;28;20128;-60
2023/09/04 06:20:49;;;;;;;19.20;16.40;;;;;;;14.79;99.37;102483.69;5112152;28;20100;-61
2023/09/04 06:23:14;;;;;;;;;;;;;;;14.92;97.77;102492.78;5112971;28;20023;-61
2023/09/04 06:25:42;;;;;;;18.40;16.63;;;;;;;14.91;98.36;102486.56;5101924;28;19923;-61
2023/09/04 06:28:09;;;;;;;19.27;17.48;;;;;;;15.03;98.62;102493.06;5079768;28;20026;-61
2023/09/04 06:30:34;;;;;;;19.05;17.25;;;;;;;14.97;99.75;102488.91;5099308;28;20028;-61
2023/09/04 06:33:03;;;;;;;18.77;16.98;;;;;;;14.96;99.54;102484.47;5107487;27;20035;-61
2023/09/04 06:35:29;;;;;;;18.87;16.87;;;;;;;15.10;99.13;102482.88;5087415;28;20042;-61
2023/09/04 06:37:55;;;;;;;19.90;18.00;;;;;;;15.11;99.27;102488.13;5094131;28;20020;-61
2023/09/04 06:40:21;;;;;;;20.05;17.35;;;;;;;15.16;100.00;102486.06;5112002;28;20011;-61
2023/09/04 06:42:46;;;;;;;19.15;17.38;;;;;;;15.27;98.72;102476.56;5112360;28;20489;-61
2023/09/04 06:45:12;;;;;;;23.65;17.80;;;;;;;15.23;99.44;102467.81;5093490;28;20023;-61
2023/09/04 06:47:38;;;;;;;19.65;17.65;;;;;;;15.41;99.80;102488.22;5112270;28;20027;-61
2023/09/04 06:50:08;;;;;;;19.55;17.10;;;;;;;15.60;97.65;102479.97;5112330;27;20458;-61
2023/09/04 06:52:34;;;;;;;22.30;18.40;;;;;;;15.59;99.04;102477.41;5112315;28;20104;-61
2023/09/04 06:55:00;;;;;;;19.40;17.50;;;;;;;15.84;97.16;102483.06;5112309;28;20055;-61
2023/09/04 06:57:26;;;;;;;18.60;16.75;;;;;;;15.91;96.86;102470.13;5111927;28;20131;-61
2023/09/04 06:59:52;;;;;;;18.00;16.13;;;;;;;16.08;96.09;102469.13;5111876;28;20103;-61
2023/09/04 07:02:19;;;;;;;17.67;15.95;;;;;;;16.19;95.04;102472.03;5090596;28;20085;-61
2023/09/04 07:04:47;;;;;;;18.25;16.52;;;;;;;16.24;93.61;102472.63;5111328;28;20027;-61
2023/09/04 07:07:12;;;;;;;17.33;15.80;;;;;;;16.21;94.71;102470.13;5112555;28;20034;-61
2023/09/04 07:09:38;;;;;;;18.65;16.70;;;;;;;16.33;95.20;102469.38;5111797;28;20470;-61
2023/09/04 07:12:04;;;;;;;17.30;15.70;;;;;;;16.21;95.13;102437.91;5108490;28;20031;-62
2023/09/04 07:14:31;;;;;;;17.48;15.82;;;;;;;16.46;94.53;102468.63;5110618;28;20024;-61
2023/09/04 07:16:59;;;;;;;18.17;16.08;;;;;;;16.55;92.91;102471.59;5091882;28;20043;-61
2023/09/04 07:19:24;;;;;;;17.88;16.27;;;;;;;16.66;91.94;102467.38;5092780;28;20027;-61
2023/09/04 07:21:50;;;;;;;16.95;15.35;;;;;;;16.65;93.28;102465.63;5092263;28;20393;-61
2023/09/04 07:24:17;;;;;;;16.77;15.05;;;;;;;16.73;92.68;102450.75;5112841;28;20172;-61
2023/09/04 07:26:43;;;;;;;18.13;16.23;;;;;;;16.93;92.41;102468.34;5111771;28;20031;-61
2023/09/04 07:29:08;;;;;;;16.77;15.15;;;;;;;17.05;92.25;102464.00;5111631;28;20098;-61
2023/09/04 07:31:33;;;;;;;16.65;15.18;;;;;;;17.07;91.05;102464.75;5093106;28;20028;-61
2023/09/04 07:33:59;;;;;;;15.57;14.18;;;;;;;17.11;90.72;102462.75;5093775;28;20031;-61
2023/09/04 07:36:24;;;;;;;16.25;14.73;;;;;;;17.21;89.66;102469.25;5093191;28;20394;-61
2023/09/04 07:38:50;;;;;;;16.40;14.70;;;;;;;17.23;90.80;102470.00;5111839;28;20106;-61
2023/09/04 07:41:15;;;;;;;15.50;14.02;;;;;;;17.29;90.20;102482.19;5112237;28;20098;-61
2023/09/04 07:43:40;;;;;;;15.43;13.80;;;;;;;17.41;89.61;102476.00;5093048;28;20103;-61
2023/09/04 07:46:06;;;;;;;15.65;14.18;;;;;;;17.41;90.99;102473.31;5093432;28;20035;-61
2023/09/04 07:48:33;;;;;;;16.50;13.93;;;;;;;17.50;90.41;102472.72;5112021;28;20031;-61
2023/09/04 07:50:59;;;;;;;14.85;13.32;;;;;;;17.57;91.57;102470.47;5109062;28;20034;-61
2023/09/04 07:53:25;;;;;;;14.60;12.77;;;;;;;17.76;89.43;102462.03;5111580;28;20374;-61
2023/09/04 07:55:51;;;;;;;17.98;12.95;;;;;;;17.81;89.21;102459.91;5107694;28;20031;-61
2023/09/04 07:58:17;;;;;;;13.65;12.25;;;;;;;17.91;86.82;102452.94;5106017;27;20104;-61
2023/09/04 08:00:45;;;;;;;14.43;13.05;;;;;;;18.01;88.04;102454.03;5104373;28;20755;-61
2023/09/04 08:03:11;;;;;;;12.77;11.57;;;;;;;18.06;85.71;102461.78;5084992;28;20024;-61
2023/09/04 08:05:36;;;;;;;14.57;12.02;;;;;;;18.07;86.29;102450.91;5085005;28;20379;-61
2023/09/04 08:08:08;;;;;;;13.35;11.98;;;;;;;18.28;86.27;102456.63;5107095;28;20027;-61
2023/09/04 08:10:34;;;;;;;13.43;10.68;;;;;;;18.31;86.56;102466.34;5111544;28;20394;-61
2023/09/04 08:12:59;;;;;;;11.75;10.55;;;;;;;18.37;87.20;102455.13;5096847;28;20027;-61
2023/09/04 08:15:25;;;;;;;13.90;10.32;;;;;;;18.53;86.30;102446.81;5097254;28;20034;-61
2023/09/04 08:17:50;;;;;;;12.00;10.85;;;;;;;18.70;85.19;102449.16;5115231;28;20406;-61
2023/09/04 08:20:15;;;;;;;11.88;10.10;;;;;;;18.77;83.59;102455.03;5111782;28;20030;-61
2023/09/04 08:22:41;;;;;;;11.40;10.18;;;;;;;18.91;83.85;102459.41;5108503;28;20148;-61
2023/09/04 08:25:07;;;;;;;11.65;10.43;;;;;;;19.08;82.12;102455.47;5114238;28;20023;-61
2023/09/04 08:27:32;;;;;;;10.40;9.50;;;;;;;19.27;82.12;102461.25;5113991;28;20036;-61
2023/09/04 08:29:57;;;;;;;11.30;10.02;;;;;;;19.42;81.21;102460.09;5114281;28;20027;-61
2023/09/04 08:32:23;;;;;;;11.77;10.68;;;;;;;19.51;82.99;102462.09;5113877;28;20048;-61
2023/09/04 08:34:48;;;;;;;10.63;9.38;;;;;;;19.81;80.82;102457.22;5095338;28;20481;-61
2023/09/04 08:37:14;;;;;;;10.65;9.18;;;;;;;19.93;78.71;102454.44;5114198;28;20048;-61
2023/09/04 08:39:39;;;;;;;10.68;8.40;;;;;;;20.17;76.17;102454.34;5113882;28;20106;-62
2023/09/04 08:42:07;;;;;;;9.65;8.63;;;;;;;20.28;75.61;102449.97;5114378;28;20508;-61
2023/09/04 08:44:38;;;;;;;11.68;7.85;;;;;;;20.53;74.04;102457.91;5096350;28;20100;-61
2023/09/04 08:47:04;;;;;;;9.77;7.78;;;;;;;20.65;73.23;102461.47;5114717;28;20028;-62
2023/09/04 08:49:29;;;;;;;8.35;7.55;;;;;;;20.89;72.14;102461.31;5114271;28;20032;-61
2023/09/04 08:51:55;;;;;;;10.43;8.10;;;;;;;21.00;74.51;102466.72;5114566;28;20023;-61
2023/09/04 08:54:22;;;;;;;8.40;6.80;;;;;;;21.28;71.43;102451.75;5114470;28;20514;-61
2023/09/04 08:56:47;;;;;;;9.55;6.75;;;;;;;21.38;71.01;102448.31;5114645;28;20050;-61
2023/09/04 08:59:13;;;;;;;10.75;6.70;;;;;;;21.57;67.89;102456.63;5114714;28;20517;-61
2023/09/04 09:01:41;;;;;;;8.05;5.88;;;;;;;21.40;70.82;102444.50;5095734;28;20023;-61
2023/09/04 09:04:07;;;;;;;7.83;6.83;;;;;;;21.65;68.33;102455.97;5096219;28;20027;-61
2023/09/04 09:06:33;;;;;;;8.48;5.75;;;;;;;21.79;69.43;102439.41;5095395;28;20281;-61
2023/09/04 09:08:59;;;;;;;8.00;6.13;;;;;;;21.89;64.88;102448.47;5113882;28;20497;-61
2023/09/04 09:11:29;;;;;;;6.95;5.63;;;;;;;21.94;67.76;102445.34;5113835;28;20066;-61
2023/09/04 09:13:54;;;;;;;7.70;5.35;;;;;;;22.17;65.00;102438.84;5113996;28;20012;-61
2023/09/04 09:16:20;;;;;;;6.70;5.22;;;;;;;22.33;64.37;102451.06;5114157;28;20031;-61
2023/09/04 09:18:47;;;;;;;6.45;5.50;;;;;;;22.36;66.53;102451.66;5114075;28;20024;-61
2023/09/04 09:21:29;;;;;;;8.73;4.72;;;;;;;22.63;63.95;102445.63;5113583;28;20029;-61
2023/09/04 09:24:06;;;;;;;6.00;4.68;;;;;;;22.75;61.93;102453.69;5113977;28;20027;-61
2023/09/04 09:26:32;;;;;;;6.95;4.57;;;;;;;22.84;60.68;102459.13;5113708;28;20110;-61
2023/09/04 09:29:02;;;;;;;6.05;4.18;;;;;;;22.86;61.75;102459.00;5095996;28;20048;-61
2023/09/04 09:31:31;;;;;;;6.07;4.90;;;;;;;22.85;66.04;102452.72;5113792;28;20019;-61
2023/09/04 09:33:59;;;;;;;6.22;4.43;;;;;;;23.16;60.36;102468.13;5113453;28;20084;-61
2023/09/04 09:36:25;;;;;;;5.03;4.53;;;;;;;23.09;62.60;102460.53;5104637;27;20123;-61
2023/09/04 09:38:53;;;;;;;5.97;4.60;;;;;;;23.24;58.10;102469.13;5102435;28;20051;-61
2023/09/04 09:41:19;;;;;;;4.70;4.18;;;;;;;23.39;59.60;102453.28;5097127;28;20031;-61
2023/09/04 09:43:44;;;;;;;7.25;4.82;;;;;;;23.55;57.54;102459.00;5108679;28;20024;-61
2023/09/04 09:46:10;;;;;;;5.13;4.50;;;;;;;23.61;57.12;102457.56;5092909;28;20055;-61
2023/09/04 09:48:38;;;;;;;6.43;4.50;;;;;;;23.61;58.39;102445.84;5092944;28;20024;-62
2023/09/04 09:51:10;;;;;;;8.05;4.28;;;;;;;23.69;55.55;102460.44;5092550;28;20056;-61
2023/09/04 09:53:57;;;;;;;6.90;4.15;;;;;;;24.06;57.13;102443.41;5108638;28;20032;-61
2023/09/04 09:56:23;;;;;;;9.15;4.30;;;;;;;24.11;55.13;102443.81;5092829;28;20105;-61
2023/09/04 09:58:49;;;;;;;4.93;3.80;;;;;;;24.15;55.45;102439.81;5092712;28;20525;-61
2023/09/04 10:01:18;;;;;;;4.32;3.65;;;;;;;24.43;54.30;102432.59;5092591;28;20073;-62
2023/09/04 10:03:44;;;;;;;4.75;3.95;;;;;;;24.07;53.47;102430.69;5092646;28;20028;-62
2023/09/04 10:06:29;;;;;;;8.38;4.00;;;;;;;24.03;55.40;102421.94;5107900;28;20028;-62
2023/09/04 10:08:58;;;;;;;5.45;3.60;;;;;;;24.01;57.71;102427.53;5092495;28;20112;-62
2023/09/04 10:11:25;;;;;;;6.43;3.63;;;;;;;24.00;54.20;102424.94;5098443;28;20054;-61
2023/09/04 10:13:55;;;;;;;6.18;3.42;;;;;;;23.80;53.35;102424.16;5120836;27;20012;-62
2023/09/04 10:16:50;;;;;;;4.63;3.38;;;;;;;23.86;58.28;102430.88;5111640;28;20020;-62
2023/09/04 10:19:18;;;;;;;4.68;3.72;;;;;;;23.79;55.74;102431.41;5090109;28;20111;-62
2023/09/04 10:21:54;;;;;;;4.15;3.55;;;;;;;23.85;54.71;102429.13;5094221;28;20036;-62
2023/09/04 10:24:40;;;;;;;4.93;3.47;;;;;;;23.92;55.45;102422.13;5109057;28;20478;-62
2023/09/04 10:27:09;;;;;;;6.57;3.95;;;;;;;23.93;55.06;102418.41;5113907;27;20027;-62
2023/09/04 10:29:49;;;;;;;5.90;3.80;;;;;;;24.06;53.09;102418.97;5112329;28;20076;-62
2023/09/04 10:32:17;;;;;;;6.13;3.85;;;;;;;24.06;51.59;102407.19;5093878;28;20047;-62
2023/09/04 10:34:43;;;;;;;4.93;4.20;;;;;;;24.18;52.02;102409.63;5093589;28;20031;-62
2023/09/04 10:37:10;;;;;;;3.80;3.45;;;;;;;24.22;52.89;102393.84;5112466;28;20429;-62
2023/09/04 10:39:37;;;;;;;3.38;3.08;;;;;;;24.05;57.15;102384.59;5093788;28;20023;-62
2023/09/04 10:42:04;;;;;;;3.90;3.13;;;;;;;24.12;53.43;102391.19;5094297;28;20051;-62
2023/09/04 10:44:49;;;;;;;4.53;3.30;;;;;;;24.28;53.10;102395.13;5094104;28;20474;-62
2023/09/04 10:47:16;;;;;;;5.03;3.85;;;;;;;24.33;52.92;102392.81;5094202;28;20024;-62
2023/09/04 10:49:42;;;;;;;5.10;3.55;;;;;;;24.19;51.59;102389.56;5111686;28;20032;-62
2023/09/04 10:52:09;;;;;;;4.88;3.20;;;;;;;24.38;49.99;102391.34;5090810;28;20023;-62
2023/09/04 10:54:34;;;;;;;3.70;2.88;;;;;;;24.47;48.89;102386.91;5102520;28;20134;-62
2023/09/04 10:57:02;;;;;;;3.15;2.88;;;;;;;24.35;48.90;102390.78;5101510;28;20119;-62
2023/09/04 10:59:28;;;;;;;8.38;3.17;;;;;;;24.32;50.53;102382.94;5107566;28;20020;-67
2023/09/04 11:01:54;;;;;;;5.63;2.78;;;;;;;24.47;48.11;102381.44;5091787;28;20024;-67
2023/09/04 11:04:35;;;;;;;3.17;2.85;;;;;;;24.60;50.99;102381.97;5091650;28;20016;-68
2023/09/04 11:07:19;;;;;;;3.00;2.70;;;;;;;24.59;50.35;102371.22;5091970;28;20169;-67
2023/09/04 11:09:44;;;;;;;3.42;2.83;;;;;;;24.76;50.48;102369.56;5091529;28;20051;-67
2023/09/04 11:12:11;;;;;;;3.28;2.97;;;;;;;24.77;49.58;102374.03;5073600;28;20070;-68
2023/09/04 11:14:47;;;;;;;4.55;2.72;;;;;;;24.77;48.59;102374.88;5100295;28;20015;-67
2023/09/04 11:17:15;;;;;;;4.13;3.00;;;;;;;24.66;47.08;102362.31;5112029;28;20022;-67